Time;durP1;ratioP1;P1;durP2;ratioP2;P2;SDS_P1;SDS_P2;PMS_P1;PMS_P2;Temp;Humidity;BMP_temperature;BMP_pressure;BME280_temperature;BME280_humidity;BME280_pressure;Samples;Min_cycle;Max_cycle;Signal;HPM_P1;HPM_P2
2022/03/13 00:00:47;;;;;;;58.23;26.20;;;;;;;;;;4374812;32;20318;-53
2022/03/13 00:03:16;;;;;;;63.07;28.50;;;;;;;;;;4388421;32;20353;-52
2022/03/13 00:05:45;;;;;;;53.20;26.93;;;;;;;;;;4381230;32;20643;-51
2022/03/13 00:08:20;;;;;;;44.60;23.17;;;;;;;;;;4359245;32;20610;-51
2022/03/13 00:10:48;;;;;;;52.90;22.07;;;;;;;;;;4373191;32;20703;-50
2022/03/13 00:13:17;;;;;;;47.50;20.93;;;;;;;;;;4378874;32;20281;-51
2022/03/13 00:15:44;;;;;;;63.90;25.90;;;;;;;;;;4381194;32;20630;-51
2022/03/13 00:18:12;;;;;;;43.87;21.63;;;;;;;;;;4372515;32;20234;-51
2022/03/13 00:20:38;;;;;;;81.80;36.03;;;;;;;;;;4367608;32;20198;-51
2022/03/13 00:23:06;;;;;;;52.20;22.53;;;;;;;;;;4373410;32;20245;-51
2022/03/13 00:25:31;;;;;;;42.30;19.93;;;;;;;;;;4365298;32;20243;-51
2022/03/13 00:27:57;;;;;;;46.20;21.37;;;;;;;;;;4374445;32;20230;-50
2022/03/13 00:30:23;;;;;;;55.33;25.00;;;;;;;;;;4382354;32;20277;-49
2022/03/13 00:32:49;;;;;;;62.73;23.53;;;;;;;;;;4383608;32;20629;-50
2022/03/13 00:35:14;;;;;;;47.47;17.90;;;;;;;;;;4387649;32;20615;-51
2022/03/13 00:37:40;;;;;;;31.93;15.73;;;;;;;;;;4374345;32;20359;-50
2022/03/13 00:40:06;;;;;;;30.90;13.27;;;;;;;;;;4387200;32;20395;-50
2022/03/13 00:42:32;;;;;;;31.83;12.20;;;;;;;;;;4388179;32;20319;-50
2022/03/13 00:44:58;;;;;;;27.13;11.97;;;;;;;;;;4387703;32;20289;-51
2022/03/13 00:47:23;;;;;;;22.43;10.33;;;;;;;;;;4374415;32;20291;-50
2022/03/13 00:49:50;;;;;;;25.23;11.77;;;;;;;;;;4387351;32;20363;-51
2022/03/13 00:52:16;;;;;;;24.50;10.97;;;;;;;;;;4386984;32;20690;-51
2022/03/13 00:54:42;;;;;;;20.37;11.43;;;;;;;;;;4386571;32;20804;-52
2022/03/13 00:57:08;;;;;;;32.97;12.03;;;;;;;;;;4372757;32;20236;-50
2022/03/13 00:59:34;;;;;;;27.80;11.07;;;;;;;;;;4378882;32;20650;-50
2022/03/13 01:02:00;;;;;;;18.60;10.97;;;;;;;;;;4359713;32;20238;-52
2022/03/13 01:04:26;;;;;;;18.77;11.37;;;;;;;;;;4387977;32;20754;-52
2022/03/13 01:06:51;;;;;;;22.43;10.90;;;;;;;;;;4373004;32;20592;-51
2022/03/13 01:09:17;;;;;;;37.17;16.37;;;;;;;;;;4387662;32;20338;-51
2022/03/13 01:11:43;;;;;;;29.53;13.13;;;;;;;;;;4386931;32;20235;-50
2022/03/13 01:14:09;;;;;;;38.67;14.77;;;;;;;;;;4387678;32;20210;-51
2022/03/13 01:16:41;;;;;;;32.50;14.83;;;;;;;;;;4387069;32;20215;-50
2022/03/13 01:19:07;;;;;;;28.50;13.53;;;;;;;;;;4387403;32;20205;-51
2022/03/13 01:21:37;;;;;;;28.67;14.07;;;;;;;;;;4386526;32;20226;-51
2022/03/13 01:24:02;;;;;;;31.47;16.90;;;;;;;;;;4387272;32;20225;-50
2022/03/13 01:26:29;;;;;;;23.23;13.53;;;;;;;;;;4375117;32;20336;-50
2022/03/13 01:28:57;;;;;;;34.07;16.10;;;;;;;;;;4372707;32;20198;-51
2022/03/13 01:31:25;;;;;;;28.13;15.17;;;;;;;;;;4378645;32;20214;-51
2022/03/13 01:33:51;;;;;;;25.23;14.93;;;;;;;;;;4373312;32;20658;-50
2022/03/13 01:36:17;;;;;;;46.90;18.53;;;;;;;;;;4386695;32;20244;-51
2022/03/13 01:38:43;;;;;;;45.63;21.63;;;;;;;;;;4387306;32;20383;-51
2022/03/13 01:41:08;;;;;;;35.77;17.77;;;;;;;;;;4386478;32;20272;-50
2022/03/13 01:43:35;;;;;;;45.37;18.13;;;;;;;;;;4372452;32;20563;-51
2022/03/13 01:46:02;;;;;;;48.23;20.97;;;;;;;;;;4378184;32;20194;-49
2022/03/13 01:48:30;;;;;;;43.27;19.30;;;;;;;;;;4374267;32;20316;-49
2022/03/13 01:50:56;;;;;;;29.73;14.27;;;;;;;;;;4386480;32;20289;-50
2022/03/13 01:53:22;;;;;;;28.57;12.67;;;;;;;;;;4386970;32;20241;-51
2022/03/13 01:55:55;;;;;;;46.17;17.17;;;;;;;;;;4386482;32;20285;-51
2022/03/13 01:58:21;;;;;;;64.00;23.30;;;;;;;;;;4386849;32;20358;-52
2022/03/13 02:00:47;;;;;;;38.07;18.73;;;;;;;;;;4387141;32;20700;-52
2022/03/13 02:03:16;;;;;;;29.07;14.67;;;;;;;;;;4386421;32;20217;-50
2022/03/13 02:05:43;;;;;;;44.37;19.43;;;;;;;;;;4386333;32;20210;-49
2022/03/13 02:08:19;;;;;;;36.53;20.10;;;;;;;;;;4386846;32;20217;-50
2022/03/13 02:10:45;;;;;;;29.73;17.50;;;;;;;;;;4372893;32;20225;-52
2022/03/13 02:13:13;;;;;;;35.87;16.07;;;;;;;;;;4386222;32;20540;-50
2022/03/13 02:15:39;;;;;;;50.63;18.93;;;;;;;;;;4383791;32;20225;-49
2022/03/13 02:18:06;;;;;;;29.73;17.47;;;;;;;;;;4372179;32;20229;-50
2022/03/13 02:20:39;;;;;;;35.03;17.53;;;;;;;;;;4371567;32;20235;-50
2022/03/13 02:23:28;;;;;;;47.60;22.70;;;;;;;;;;4381130;32;20293;-51
2022/03/13 02:26:06;;;;;;;59.43;21.17;;;;;;;;;;4386147;32;20305;-51
2022/03/13 02:28:33;;;;;;;36.30;20.70;;;;;;;;;;4372937;32;20268;-51
2022/03/13 02:31:04;;;;;;;34.57;19.40;;;;;;;;;;4373776;32;20236;-51
2022/03/13 02:33:30;;;;;;;36.33;17.97;;;;;;;;;;4375728;32;20237;-51
2022/03/13 02:36:02;;;;;;;33.63;18.73;;;;;;;;;;4371137;32;20335;-50
2022/03/13 02:38:29;;;;;;;29.73;15.73;;;;;;;;;;4371821;32;20273;-49
2022/03/13 02:40:56;;;;;;;41.00;17.87;;;;;;;;;;4373983;32;20236;-50
2022/03/13 02:43:22;;;;;;;32.73;16.23;;;;;;;;;;4372836;32;20319;-50
2022/03/13 02:45:50;;;;;;;31.57;15.20;;;;;;;;;;4369147;32;20305;-51
2022/03/13 02:48:17;;;;;;;25.43;14.70;;;;;;;;;;4358132;32;20249;-50
2022/03/13 02:50:43;;;;;;;36.53;17.67;;;;;;;;;;4381425;32;20214;-50
2022/03/13 02:53:09;;;;;;;40.20;19.47;;;;;;;;;;4378868;32;20398;-51
2022/03/13 02:55:35;;;;;;;33.40;19.83;;;;;;;;;;4371912;32;20348;-52
2022/03/13 02:58:02;;;;;;;37.10;19.00;;;;;;;;;;4386627;32;20218;-50
2022/03/13 03:00:47;;;;;;;28.03;17.40;;;;;;;;;;4386016;32;20324;-50
2022/03/13 03:03:15;;;;;;;39.73;19.10;;;;;;;;;;4386814;32;20250;-49
2022/03/13 03:05:40;;;;;;;44.23;20.57;;;;;;;;;;4383260;32;20230;-50
2022/03/13 03:08:07;;;;;;;41.00;19.23;;;;;;;;;;4371584;32;20218;-51
2022/03/13 03:10:34;;;;;;;42.77;18.90;;;;;;;;;;4379593;32;20318;-50
2022/03/13 03:13:00;;;;;;;44.10;22.60;;;;;;;;;;4389492;32;20300;-50
2022/03/13 03:15:26;;;;;;;39.87;18.83;;;;;;;;;;4387274;32;20348;-51
2022/03/13 03:17:52;;;;;;;33.60;17.67;;;;;;;;;;4374249;32;20269;-50
2022/03/13 03:20:18;;;;;;;38.20;19.13;;;;;;;;;;4386257;32;20235;-51
2022/03/13 03:22:44;;;;;;;42.63;19.63;;;;;;;;;;4373999;32;20230;-50
2022/03/13 03:25:09;;;;;;;37.43;17.17;;;;;;;;;;4388837;32;20758;-50
2022/03/13 03:27:35;;;;;;;36.73;17.60;;;;;;;;;;4373035;32;20520;-49
2022/03/13 03:30:01;;;;;;;39.50;20.63;;;;;;;;;;4382691;32;20287;-50
2022/03/13 03:32:27;;;;;;;32.33;17.60;;;;;;;;;;4388505;32;20666;-50
2022/03/13 03:34:53;;;;;;;38.07;19.17;;;;;;;;;;4388422;32;20300;-50
2022/03/13 03:37:19;;;;;;;38.93;18.20;;;;;;;;;;4388476;32;20230;-51
2022/03/13 03:39:44;;;;;;;47.63;19.43;;;;;;;;;;4388820;32;20281;-51
2022/03/13 03:42:10;;;;;;;32.57;18.40;;;;;;;;;;4376861;32;20623;-52
2022/03/13 03:44:35;;;;;;;44.47;20.90;;;;;;;;;;4374040;32;20364;-52
2022/03/13 03:47:01;;;;;;;38.57;19.60;;;;;;;;;;4372897;32;20649;-51
2022/03/13 03:49:26;;;;;;;37.77;18.43;;;;;;;;;;4383493;32;20224;-50
2022/03/13 03:51:52;;;;;;;38.23;18.53;;;;;;;;;;4388234;32;20350;-52
2022/03/13 03:54:18;;;;;;;53.87;19.30;;;;;;;;;;4388869;32;20297;-51
2022/03/13 03:56:44;;;;;;;34.37;18.00;;;;;;;;;;4387691;32;20597;-51
2022/03/13 03:59:10;;;;;;;49.23;20.97;;;;;;;;;;4388561;32;20261;-51
2022/03/13 04:01:40;;;;;;;41.67;19.53;;;;;;;;;;4388117;32;20225;-51
2022/03/13 04:04:07;;;;;;;58.50;27.80;;;;;;;;;;4388687;32;20209;-50
2022/03/13 04:06:37;;;;;;;49.07;27.33;;;;;;;;;;4387378;32;20233;-49
2022/03/13 04:09:03;;;;;;;47.30;21.53;;;;;;;;;;4388196;32;20214;-50
2022/03/13 04:11:29;;;;;;;36.87;17.63;;;;;;;;;;4388028;32;20398;-50
2022/03/13 04:13:55;;;;;;;38.93;17.60;;;;;;;;;;4388992;32;20651;-50
2022/03/13 04:16:20;;;;;;;36.40;16.87;;;;;;;;;;4360782;32;20320;-50
2022/03/13 04:18:47;;;;;;;34.53;15.47;;;;;;;;;;4388099;32;20701;-53
2022/03/13 04:21:13;;;;;;;31.67;14.70;;;;;;;;;;4380583;32;20547;-51
2022/03/13 04:23:38;;;;;;;24.97;13.87;;;;;;;;;;4359563;32;20379;-52
2022/03/13 04:26:04;;;;;;;30.30;15.90;;;;;;;;;;4360852;32;20582;-51
2022/03/13 04:28:30;;;;;;;31.93;14.77;;;;;;;;;;4387503;32;20384;-50
2022/03/13 04:30:59;;;;;;;39.10;18.20;;;;;;;;;;4387725;32;20223;-51
2022/03/13 04:33:28;;;;;;;25.63;14.67;;;;;;;;;;4388231;32;20602;-49
2022/03/13 04:35:58;;;;;;;14.27;9.60;;;;;;;;;;4387260;32;20329;-50
2022/03/13 04:38:26;;;;;;;15.13;8.03;;;;;;;;;;4387645;32;20262;-51
2022/03/13 04:40:53;;;;;;;20.83;8.63;;;;;;;;;;4388002;32;20285;-50
2022/03/13 04:43:18;;;;;;;18.63;10.33;;;;;;;;;;4374230;32;20221;-50
2022/03/13 04:45:44;;;;;;;28.00;11.70;;;;;;;;;;4387806;32;20311;-51
2022/03/13 04:48:09;;;;;;;22.43;10.20;;;;;;;;;;4387595;32;20392;-49
2022/03/13 04:50:35;;;;;;;24.63;11.13;;;;;;;;;;4373773;32;20623;-49
2022/03/13 04:53:00;;;;;;;16.73;10.47;;;;;;;;;;4387982;32;20214;-49
2022/03/13 04:55:25;;;;;;;15.90;9.47;;;;;;;;;;4373081;32;20360;-50
2022/03/13 04:57:51;;;;;;;23.00;11.47;;;;;;;;;;4387297;32;20563;-51
2022/03/13 05:00:17;;;;;;;24.73;11.17;;;;;;;;;;4387741;32;20268;-52
2022/03/13 05:02:43;;;;;;;32.37;12.03;;;;;;;;;;4386183;32;20383;-50
2022/03/13 05:05:09;;;;;;;28.80;12.77;;;;;;;;;;4387489;32;20356;-53
2022/03/13 05:07:38;;;;;;;48.53;19.73;;;;;;;;;;4387290;32;20218;-51
2022/03/13 05:10:05;;;;;;;29.17;14.53;;;;;;;;;;4387196;32;20297;-51
2022/03/13 05:12:32;;;;;;;22.53;12.83;;;;;;;;;;4373111;32;21061;-51
2022/03/13 05:14:58;;;;;;;26.80;14.60;;;;;;;;;;4387212;32;20597;-50
2022/03/13 05:17:24;;;;;;;32.53;18.60;;;;;;;;;;4377667;32;20245;-50
2022/03/13 05:19:49;;;;;;;41.00;18.83;;;;;;;;;;4387137;32;20300;-51
2022/03/13 05:22:15;;;;;;;44.73;22.73;;;;;;;;;;4387115;32;20314;-50
2022/03/13 05:24:40;;;;;;;87.77;37.97;;;;;;;;;;4361353;32;20779;-50
2022/03/13 05:27:06;;;;;;;54.03;27.70;;;;;;;;;;4387105;32;20241;-50
2022/03/13 05:29:31;;;;;;;54.10;26.77;;;;;;;;;;4387179;32;20308;-52
2022/03/13 05:31:57;;;;;;;52.23;27.23;;;;;;;;;;4386817;32;20214;-50
2022/03/13 05:34:22;;;;;;;53.17;26.40;;;;;;;;;;4386383;32;20276;-49
2022/03/13 05:36:48;;;;;;;59.83;26.90;;;;;;;;;;4372651;32;20287;-50
2022/03/13 05:39:14;;;;;;;58.50;26.23;;;;;;;;;;4373127;32;21156;-50
2022/03/13 05:41:40;;;;;;;42.17;23.73;;;;;;;;;;4364559;32;20295;-50
2022/03/13 05:44:12;;;;;;;41.93;24.03;;;;;;;;;;4358682;32;20240;-49
2022/03/13 05:46:37;;;;;;;49.53;21.57;;;;;;;;;;4378098;32;20710;-49
2022/03/13 05:49:03;;;;;;;40.70;22.87;;;;;;;;;;4372102;32;20380;-50
2022/03/13 05:51:41;;;;;;;42.53;22.67;;;;;;;;;;4357936;32;21702;-51
2022/03/13 05:54:07;;;;;;;49.13;24.63;;;;;;;;;;4372370;32;20226;-49
2022/03/13 05:56:32;;;;;;;41.47;18.60;;;;;;;;;;4382907;32;20558;-50
2022/03/13 05:58:58;;;;;;;31.03;16.07;;;;;;;;;;4387013;32;20277;-50
2022/03/13 06:01:24;;;;;;;28.27;16.63;;;;;;;;;;4379090;32;20630;-51
2022/03/13 06:03:50;;;;;;;51.60;26.00;;;;;;;;;;4375138;32;20205;-49
2022/03/13 06:06:15;;;;;;;73.83;29.40;;;;;;;;;;4366067;32;20336;-51
2022/03/13 06:08:41;;;;;;;60.57;28.03;;;;;;;;;;4358771;32;20362;-51
2022/03/13 06:11:08;;;;;;;37.27;20.33;;;;;;;;;;4371086;32;20291;-49
2022/03/13 06:13:34;;;;;;;55.33;22.23;;;;;;;;;;4384631;32;20292;-49
2022/03/13 06:16:00;;;;;;;49.47;25.60;;;;;;;;;;4380535;32;20688;-50
2022/03/13 06:18:30;;;;;;;99.97;38.17;;;;;;;;;;4373253;32;20310;-51
2022/03/13 06:20:56;;;;;;;49.37;23.43;;;;;;;;;;4372260;32;20340;-50
2022/03/13 06:23:22;;;;;;;46.07;23.83;;;;;;;;;;4386546;32;20304;-48
2022/03/13 06:25:48;;;;;;;51.53;27.83;;;;;;;;;;4362922;32;20337;-50
2022/03/13 06:28:14;;;;;;;59.23;26.47;;;;;;;;;;4371047;32;20280;-49
2022/03/13 06:30:40;;;;;;;48.47;21.70;;;;;;;;;;4362566;32;20873;-51
2022/03/13 06:33:05;;;;;;;36.83;18.97;;;;;;;;;;4375488;32;20217;-49
2022/03/13 06:35:32;;;;;;;33.33;19.83;;;;;;;;;;4369500;32;20588;-50
2022/03/13 06:37:58;;;;;;;34.70;19.13;;;;;;;;;;4386449;32;20242;-50
2022/03/13 06:40:25;;;;;;;49.30;18.97;;;;;;;;;;4386884;32;20405;-53
2022/03/13 06:42:53;;;;;;;39.63;19.00;;;;;;;;;;4382989;32;20309;-50
2022/03/13 06:45:19;;;;;;;31.10;17.90;;;;;;;;;;4377869;32;20195;-51
2022/03/13 06:47:47;;;;;;;35.67;19.43;;;;;;;;;;4387568;32;20241;-50
2022/03/13 06:50:15;;;;;;;49.77;19.87;;;;;;;;;;4384620;32;20299;-52
2022/03/13 06:52:41;;;;;;;34.23;19.50;;;;;;;;;;4389298;32;20613;-50
2022/03/13 06:55:07;;;;;;;31.47;19.43;;;;;;;;;;4389213;32;20515;-50
2022/03/13 06:57:33;;;;;;;54.63;23.83;;;;;;;;;;4389442;32;20674;-50
2022/03/13 07:00:00;;;;;;;41.57;21.80;;;;;;;;;;4383813;32;20220;-49
2022/03/13 07:02:26;;;;;;;37.60;22.33;;;;;;;;;;4374136;32;20241;-49
2022/03/13 07:04:52;;;;;;;37.30;20.80;;;;;;;;;;4363079;32;20769;-51
2022/03/13 07:07:18;;;;;;;51.83;24.27;;;;;;;;;;4375994;32;20243;-50
2022/03/13 07:09:44;;;;;;;41.23;22.93;;;;;;;;;;4389355;32;20230;-49
2022/03/13 07:12:11;;;;;;;48.33;26.40;;;;;;;;;;4389576;32;20764;-51
2022/03/13 07:14:42;;;;;;;46.77;23.40;;;;;;;;;;4376518;32;20218;-50
2022/03/13 07:17:08;;;;;;;55.73;28.33;;;;;;;;;;4365574;32;20369;-50
2022/03/13 07:19:34;;;;;;;44.97;25.43;;;;;;;;;;4381637;32;20289;-50
2022/03/13 07:21:59;;;;;;;43.40;25.17;;;;;;;;;;4389231;32;20702;-50
2022/03/13 07:24:25;;;;;;;49.77;26.73;;;;;;;;;;4375566;32;20478;-51
2022/03/13 07:26:51;;;;;;;44.87;25.53;;;;;;;;;;4389510;32;20598;-51
2022/03/13 07:29:16;;;;;;;55.63;27.87;;;;;;;;;;4389475;32;20307;-52
2022/03/13 07:31:42;;;;;;;67.43;34.17;;;;;;;;;;4375914;32;20348;-50
2022/03/13 07:34:08;;;;;;;64.77;29.93;;;;;;;;;;4388208;32;20265;-52
2022/03/13 07:36:34;;;;;;;51.53;29.30;;;;;;;;;;4389707;32;20313;-50
2022/03/13 07:39:02;;;;;;;56.20;30.57;;;;;;;;;;4379287;32;20277;-52
2022/03/13 07:41:28;;;;;;;49.57;29.03;;;;;;;;;;4375247;32;20214;-51
2022/03/13 07:43:55;;;;;;;51.10;30.40;;;;;;;;;;4389240;32;20367;-52
2022/03/13 07:46:20;;;;;;;66.27;30.67;;;;;;;;;;4389475;32;20225;-51
2022/03/13 07:48:46;;;;;;;51.50;28.87;;;;;;;;;;4389547;32;21044;-52
2022/03/13 07:51:12;;;;;;;53.43;26.57;;;;;;;;;;4379503;32;20308;-50
2022/03/13 07:53:38;;;;;;;38.63;23.27;;;;;;;;;;4360379;32;20543;-51
2022/03/13 07:56:04;;;;;;;35.97;23.17;;;;;;;;;;4374053;32;20198;-50
2022/03/13 07:58:30;;;;;;;35.17;17.27;;;;;;;;;;4388126;32;20305;-51
2022/03/13 08:00:55;;;;;;;31.67;16.23;;;;;;;;;;4389984;32;20205;-57
2022/03/13 08:03:24;;;;;;;26.43;13.33;;;;;;;;;;4390666;32;20218;-51
2022/03/13 08:05:52;;;;;;;29.73;15.77;;;;;;;;;;4372055;32;20910;-49
2022/03/13 08:08:19;;;;;;;29.63;14.70;;;;;;;;;;4370161;32;20233;-50
2022/03/13 08:10:45;;;;;;;33.03;18.27;;;;;;;;;;4383175;32;20420;-50
2022/03/13 08:13:10;;;;;;;23.47;13.70;;;;;;;;;;4374411;32;20651;-49
2022/03/13 08:15:36;;;;;;;27.47;18.50;;;;;;;;;;4379838;32;20295;-49
2022/03/13 08:18:02;;;;;;;25.90;16.43;;;;;;;;;;4382474;32;20865;-50
2022/03/13 08:20:29;;;;;;;41.83;20.40;;;;;;;;;;4377405;32;20360;-52
2022/03/13 08:22:55;;;;;;;20.87;12.63;;;;;;;;;;4382555;32;20225;-50
2022/03/13 08:25:21;;;;;;;20.50;13.20;;;;;;;;;;4378441;32;20233;-51
2022/03/13 08:27:48;;;;;;;28.60;14.37;;;;;;;;;;4381521;32;20218;-49
2022/03/13 08:30:14;;;;;;;134.70;45.07;;;;;;;;;;4380549;32;20706;-49
2022/03/13 08:32:40;;;;;;;27.87;13.80;;;;;;;;;;4367842;32;20261;-49
2022/03/13 08:35:09;;;;;;;21.10;12.53;;;;;;;;;;4380682;32;20276;-50
2022/03/13 08:37:36;;;;;;;20.43;12.03;;;;;;;;;;4380961;32;20767;-49
2022/03/13 08:40:03;;;;;;;21.80;13.63;;;;;;;;;;4388810;32;20216;-50
2022/03/13 08:42:30;;;;;;;23.53;12.40;;;;;;;;;;4375451;32;20241;-50
2022/03/13 08:44:57;;;;;;;38.00;20.63;;;;;;;;;;4373156;32;20229;-50
2022/03/13 08:47:23;;;;;;;26.00;13.13;;;;;;;;;;4359762;32;20403;-50
2022/03/13 08:49:50;;;;;;;16.87;10.20;;;;;;;;;;4361088;32;20292;-52
2022/03/13 08:52:16;;;;;;;22.27;11.47;;;;;;;;;;4388181;32;20574;-49
2022/03/13 08:54:42;;;;;;;23.70;11.90;;;;;;;;;;4387204;32;20305;-48
2022/03/13 08:57:07;;;;;;;19.43;11.17;;;;;;;;;;4387459;32;20252;-50
2022/03/13 08:59:35;;;;;;;72.57;28.20;;;;;;;;;;4388179;32;20273;-49
2022/03/13 09:02:01;;;;;;;29.83;16.40;;;;;;;;;;4377959;32;20280;-48
2022/03/13 09:04:26;;;;;;;56.83;22.53;;;;;;;;;;4384087;32;20309;-49
2022/03/13 09:06:54;;;;;;;67.33;25.07;;;;;;;;;;4352699;32;20393;-49
2022/03/13 09:09:22;;;;;;;39.57;16.90;;;;;;;;;;4359250;32;20252;-49
2022/03/13 09:11:53;;;;;;;24.10;12.77;;;;;;;;;;4375861;32;20225;-49
2022/03/13 09:14:21;;;;;;;22.27;12.40;;;;;;;;;;4387306;32;20257;-49
2022/03/13 09:16:46;;;;;;;31.87;14.77;;;;;;;;;;4373328;32;20308;-50
2022/03/13 09:19:13;;;;;;;32.60;14.03;;;;;;;;;;4381611;32;20387;-50
2022/03/13 09:21:39;;;;;;;42.47;13.27;;;;;;;;;;4372262;32;20739;-50
2022/03/13 09:24:10;;;;;;;17.93;12.33;;;;;;;;;;4387188;32;20459;-52
2022/03/13 09:26:39;;;;;;;22.10;12.90;;;;;;;;;;4387453;32;20248;-50
2022/03/13 09:29:05;;;;;;;23.17;13.13;;;;;;;;;;4403203;32;20261;-50
2022/03/13 09:31:31;;;;;;;21.83;12.10;;;;;;;;;;4381433;32;20694;-49
2022/03/13 09:33:57;;;;;;;21.00;12.97;;;;;;;;;;4361707;32;20337;-52
2022/03/13 09:36:25;;;;;;;22.20;13.80;;;;;;;;;;4386321;32;20250;-50
2022/03/13 09:38:52;;;;;;;26.00;10.47;;;;;;;;;;4387274;32;20243;-50
2022/03/13 09:41:18;;;;;;;16.57;9.83;;;;;;;;;;4387102;32;20673;-50
2022/03/13 09:43:43;;;;;;;26.43;16.13;;;;;;;;;;4387801;32;20681;-51
2022/03/13 09:46:11;;;;;;;30.40;19.03;;;;;;;;;;4382431;32;20257;-51
2022/03/13 09:48:38;;;;;;;23.57;13.90;;;;;;;;;;4382589;32;20575;-50
2022/03/13 09:51:07;;;;;;;22.53;13.27;;;;;;;;;;4373578;32;20245;-50
2022/03/13 09:53:36;;;;;;;16.83;9.63;;;;;;;;;;4374316;32;20444;-50
2022/03/13 09:56:03;;;;;;;25.90;14.53;;;;;;;;;;4387341;32;20606;-49
2022/03/13 09:58:30;;;;;;;18.17;10.83;;;;;;;;;;4387282;32;20221;-48
2022/03/13 10:00:58;;;;;;;19.07;10.97;;;;;;;;;;4386639;32;20231;-49
2022/03/13 10:03:25;;;;;;;15.87;9.30;;;;;;;;;;4373717;32;20218;-48
2022/03/13 10:05:56;;;;;;;15.40;9.67;;;;;;;;;;4387422;32;20242;-49
2022/03/13 10:08:27;;;;;;;28.90;13.97;;;;;;;;;;4386739;32;20920;-50
2022/03/13 10:10:54;;;;;;;39.40;19.43;;;;;;;;;;4387228;32;20379;-50
2022/03/13 10:13:37;;;;;;;16.20;9.93;;;;;;;;;;4387424;32;20249;-50
2022/03/13 10:16:05;;;;;;;10.63;6.63;;;;;;;;;;4383150;32;20281;-49
2022/03/13 10:18:30;;;;;;;28.83;14.70;;;;;;;;;;4373534;32;20312;-51
2022/03/13 10:20:56;;;;;;;15.93;9.53;;;;;;;;;;4390407;32;20615;-49
2022/03/13 10:23:23;;;;;;;20.27;8.57;;;;;;;;;;4391453;32;20350;-49
2022/03/13 10:25:50;;;;;;;27.43;13.33;;;;;;;;;;4392084;32;20240;-50
2022/03/13 10:28:25;;;;;;;11.50;7.60;;;;;;;;;;4390804;32;20261;-50
2022/03/13 10:30:59;;;;;;;36.07;15.97;;;;;;;;;;4377279;32;20193;-49
2022/03/13 10:33:48;;;;;;;19.50;9.90;;;;;;;;;;4377144;32;20351;-49
2022/03/13 10:36:31;;;;;;;18.57;10.37;;;;;;;;;;4387395;32;20659;-49
2022/03/13 10:38:57;;;;;;;15.20;8.97;;;;;;;;;;4378797;32;20324;-49
2022/03/13 10:41:42;;;;;;;12.67;7.00;;;;;;;;;;4387935;32;20199;-50
2022/03/13 10:44:13;;;;;;;16.57;8.57;;;;;;;;;;4392192;32;20194;-51
2022/03/13 10:46:40;;;;;;;40.77;16.70;;;;;;;;;;4391804;32;20292;-49
2022/03/13 10:49:07;;;;;;;11.20;5.90;;;;;;;;;;4377630;32;20293;-49
2022/03/13 10:51:38;;;;;;;14.70;7.73;;;;;;;;;;4391279;32;20296;-50
2022/03/13 10:54:05;;;;;;;9.60;6.53;;;;;;;;;;4392077;32;20260;-51
2022/03/13 10:56:31;;;;;;;21.80;7.33;;;;;;;;;;4391715;32;20665;-50
2022/03/13 10:58:58;;;;;;;15.73;6.80;;;;;;;;;;4391600;32;20217;-50
2022/03/13 11:01:25;;;;;;;11.63;6.50;;;;;;;;;;4385294;32;20264;-50
2022/03/13 11:03:56;;;;;;;22.80;12.43;;;;;;;;;;4375809;32;20215;-49
2022/03/13 11:06:24;;;;;;;28.77;12.63;;;;;;;;;;4366881;32;20313;-49
2022/03/13 11:08:53;;;;;;;19.97;9.03;;;;;;;;;;4380702;32;20609;-50
2022/03/13 11:11:20;;;;;;;22.10;10.80;;;;;;;;;;4375608;32;20202;-50
2022/03/13 11:13:57;;;;;;;36.80;17.03;;;;;;;;;;4391502;32;20658;-49
2022/03/13 11:16:25;;;;;;;54.87;24.13;;;;;;;;;;4390909;32;20197;-50
2022/03/13 11:18:53;;;;;;;54.17;24.50;;;;;;;;;;4402977;32;20633;-50
2022/03/13 11:21:21;;;;;;;13.43;7.30;;;;;;;;;;4399929;32;20684;-50
2022/03/13 11:23:47;;;;;;;37.43;16.60;;;;;;;;;;4377564;32;20219;-50
2022/03/13 11:26:15;;;;;;;11.27;7.87;;;;;;;;;;4385968;32;20248;-50
2022/03/13 11:28:48;;;;;;;18.30;7.90;;;;;;;;;;3928779;32;21055;-52
2022/03/13 11:31:35;;;;;;;55.17;21.07;;;;;;;;;;4376796;32;20239;-50
2022/03/13 11:34:22;;;;;;;23.87;9.83;;;;;;;;;;4374839;32;20313;-50
2022/03/13 11:36:49;;;;;;;12.23;5.87;;;;;;;;;;4374143;32;20241;-49
2022/03/13 11:39:26;;;;;;;23.27;13.17;;;;;;;;;;4374058;32;20272;-49
2022/03/13 11:41:53;;;;;;;19.73;11.13;;;;;;;;;;4368254;32;20273;-50
2022/03/13 11:44:22;;;;;;;9.33;6.10;;;;;;;;;;4375411;32;20309;-50
2022/03/13 11:46:54;;;;;;;16.30;8.60;;;;;;;;;;4375653;32;20245;-50
2022/03/13 11:49:26;;;;;;;19.87;9.47;;;;;;;;;;4385904;32;20320;-50
2022/03/13 11:52:15;;;;;;;15.20;6.53;;;;;;;;;;4388334;32;20279;-49
2022/03/13 11:54:53;;;;;;;31.13;13.10;;;;;;;;;;4389101;32;20260;-49
2022/03/13 11:57:20;;;;;;;25.47;12.27;;;;;;;;;;4387236;32;20233;-50
2022/03/13 12:00:07;;;;;;;17.50;8.10;;;;;;;;;;4388479;32;20218;-49
2022/03/13 12:02:43;;;;;;;69.87;26.77;;;;;;;;;;4364888;32;20250;-51
2022/03/13 12:05:29;;;;;;;31.23;14.53;;;;;;;;;;4359804;32;20378;-50
2022/03/13 12:08:05;;;;;;;58.60;22.93;;;;;;;;;;4372967;32;20590;-49
2022/03/13 12:10:41;;;;;;;22.37;11.40;;;;;;;;;;4368579;32;20198;-50
2022/03/13 12:13:12;;;;;;;12.63;7.13;;;;;;;;;;4373068;32;20338;-51
2022/03/13 12:15:40;;;;;;;26.43;11.07;;;;;;;;;;4367392;32;20221;-49
2022/03/13 12:18:23;;;;;;;162.97;59.60;;;;;;;;;;4363367;32;20218;-50
2022/03/13 12:20:52;;;;;;;27.30;10.23;;;;;;;;;;4365089;32;20225;-50
2022/03/13 12:23:31;;;;;;;12.17;6.37;;;;;;;;;;4372841;32;20218;-50
2022/03/13 12:26:18;;;;;;;17.60;8.23;;;;;;;;;;4365521;32;20249;-50
2022/03/13 12:28:44;;;;;;;11.03;6.00;;;;;;;;;;4358579;32;20242;-51
2022/03/13 12:31:10;;;;;;;10.70;5.33;;;;;;;;;;4365513;32;20346;-51
2022/03/13 12:33:37;;;;;;;13.83;8.23;;;;;;;;;;4372088;32;20293;-51
2022/03/13 12:36:03;;;;;;;6.73;5.03;;;;;;;;;;4364682;32;20211;-50
2022/03/13 12:38:30;;;;;;;11.97;6.47;;;;;;;;;;4358773;32;20288;-49
2022/03/13 12:40:58;;;;;;;8.33;5.70;;;;;;;;;;4358942;32;20232;-50
2022/03/13 12:43:25;;;;;;;6.80;5.47;;;;;;;;;;4371736;32;20272;-52
2022/03/13 12:45:51;;;;;;;4.40;3.40;;;;;;;;;;4365901;32;20742;-51
2022/03/13 12:48:17;;;;;;;5.20;3.70;;;;;;;;;;4344763;32;20226;-50
2022/03/13 12:50:47;;;;;;;15.10;5.40;;;;;;;;;;4372086;32;20274;-50
2022/03/13 12:53:24;;;;;;;8.10;4.40;;;;;;;;;;4373148;32;20355;-50
2022/03/13 12:55:52;;;;;;;5.80;3.33;;;;;;;;;;4372843;32;20214;-51
2022/03/13 12:58:19;;;;;;;5.20;3.20;;;;;;;;;;4372858;32;20532;-50
2022/03/13 13:00:44;;;;;;;4.80;2.83;;;;;;;;;;4372323;32;20606;-50
2022/03/13 13:03:10;;;;;;;4.30;2.80;;;;;;;;;;4388077;32;20318;-51
2022/03/13 13:05:36;;;;;;;11.40;5.30;;;;;;;;;;4387547;32;20697;-52
2022/03/13 13:08:02;;;;;;;22.07;10.20;;;;;;;;;;4387450;32;20310;-51
2022/03/13 13:10:28;;;;;;;5.40;3.67;;;;;;;;;;4386355;32;20206;-50
2022/03/13 13:12:54;;;;;;;5.00;3.17;;;;;;;;;;4399218;32;20252;-50
2022/03/13 13:15:23;;;;;;;12.33;6.03;;;;;;;;;;4378123;32;20223;-50
2022/03/13 13:17:51;;;;;;;10.13;4.27;;;;;;;;;;4370360;32;20234;-50
2022/03/13 13:20:25;;;;;;;8.77;4.00;;;;;;;;;;4383917;32;20294;-50
2022/03/13 13:23:12;;;;;;;7.43;4.47;;;;;;;;;;4386487;32;20247;-51
2022/03/13 13:25:38;;;;;;;6.83;4.23;;;;;;;;;;4371920;32;20214;-50
2022/03/13 13:28:08;;;;;;;10.47;5.00;;;;;;;;;;4371786;32;20250;-50
2022/03/13 13:30:35;;;;;;;10.07;4.73;;;;;;;;;;4362556;32;20217;-50
2022/03/13 13:33:14;;;;;;;8.83;4.00;;;;;;;;;;4385813;32;20332;-50
2022/03/13 13:35:47;;;;;;;5.47;4.30;;;;;;;;;;4372764;32;20248;-50
2022/03/13 13:38:16;;;;;;;6.57;3.70;;;;;;;;;;4373133;32;20733;-50
2022/03/13 13:40:41;;;;;;;12.60;6.70;;;;;;;;;;4386656;32;20245;-51
2022/03/13 13:43:21;;;;;;;12.43;5.87;;;;;;;;;;4386845;32;20378;-50
2022/03/13 13:45:48;;;;;;;11.93;5.63;;;;;;;;;;4386290;32;20202;-51
2022/03/13 13:48:29;;;;;;;6.13;3.90;;;;;;;;;;4386324;32;20234;-51
2022/03/13 13:51:19;;;;;;;7.03;3.20;;;;;;;;;;4385643;32;20270;-52
2022/03/13 13:54:11;;;;;;;5.20;3.80;;;;;;;;;;4386131;32;20218;-52
2022/03/13 13:57:02;;;;;;;6.73;3.83;;;;;;;;;;4378270;32;20297;-51
2022/03/13 13:59:29;;;;;;;7.03;5.23;;;;;;;;;;4384209;32;20244;-51
2022/03/13 14:02:04;;;;;;;10.20;5.57;;;;;;;;;;4378860;32;20233;-50
2022/03/13 14:04:34;;;;;;;6.80;4.57;;;;;;;;;;4387065;32;20273;-51
2022/03/13 14:07:00;;;;;;;10.03;6.63;;;;;;;;;;4365954;32;20263;-50
2022/03/13 14:09:26;;;;;;;9.37;5.13;;;;;;;;;;4400022;32;20281;-51
2022/03/13 14:11:51;;;;;;;10.13;5.37;;;;;;;;;;4372847;32;20260;-51
2022/03/13 14:14:17;;;;;;;8.90;4.43;;;;;;;;;;4386828;32;20292;-50
2022/03/13 14:16:43;;;;;;;5.90;4.90;;;;;;;;;;4384984;32;20317;-51
2022/03/13 14:19:09;;;;;;;10.97;5.13;;;;;;;;;;4386481;32;20308;-53
2022/03/13 14:21:36;;;;;;;8.53;5.90;;;;;;;;;;4384625;32;20253;-51
2022/03/13 14:24:03;;;;;;;9.47;6.00;;;;;;;;;;4386912;32;20222;-52
2022/03/13 14:26:28;;;;;;;19.27;8.90;;;;;;;;;;4385345;32;20371;-52